Air Navigation Services of Czech Republic  
Last data update:  20.01.2017 20:08:08 UTC Česká verze
   METEO Page displayed:  20.01.2017 20:09:41 UTC  
help
METAR EDDB 201950Z 23005KT 3500 -DZ BR SCT003 BKN014 01/00 Q1034 R25/19//95 TEMPO 6000 BKN004=
METAR EDDC 201950Z 18002KT 7000 BKN037 M02/M04 Q1033 NOSIG=
METAR EDDE 201950Z 35002KT 9999 BKN031 M02/M07 Q1033 NOSIG=
METAR EDDF 201950Z 07005KT 020V090 CAVOK M00/M07 Q1032 R88/0///95 NOSIG=
METAR EDDM 201950Z 07002KT CAVOK M12/M13 Q1030 NOSIG=
METAR EDDN 201950Z 00000KT CAVOK M05/M13 Q1031 NOSIG=
METAR EDDP 201950Z 19003KT 9999 FEW040 M04/M07 Q1034 NOSIG=
METAR EDDT 201950Z 27004KT 3500 BR BKN004 BKN015 01/00 Q1034 R88/190095 TEMPO SCT004=
METAR EDQM 201850Z 04005KT CAVOK M03/M08 Q1031=
METAR EPBY 202000Z 26011KT 1200 R26/P2000 BR OVC002 02/01 Q1029 R26/29//95 =
METAR EPGD 202000Z 28010KT 4000 BR OVC004 03/02 Q1026 R11/290095 =
METAR EPKK 202000Z 21004KT 5000 HZ BKN020 M01/M08 Q1032 =
METAR EPKT 202000Z 25007KT 6000 BKN005 OVC009 M02/M03 Q1032 =
METAR EPLL 202000Z 24011KT 1700 -DZ BR OVC002 00/00 Q1030 R25/29//95 =
METAR EPPO 202000Z 27009KT 3500 BR OVC003 01/00 Q1032 R10/29//95 =
METAR EPRZ 202000Z 24012KT 4000 BR SCT006 OVC010 M01/M02 Q1031 REFZDZ =
METAR EPWA 202000Z 27006KT 240V300 3900 -FZDZ BR OVC004 00/M00 Q1029 R33/2///95 NOSIG=
METAR EPWR 202000Z 30005KT 9999 OVC017 01/M03 Q1034 =
METAR LHBP 202000Z 07005KT 1700 BR FEW004 M09/M10 Q1036 BECMG 1200 FZBCFG SCT002=
METAR LHSM 201545Z 00000KT 4000 HZ NSC M04/M08 Q1036=
METAR LKCV 202000Z 20001KT 3000 BR NSC M09/M10 Q1034 NOSIG=
METAR LKKB 202000Z VRB03KT 3000 BR BKN031 M07/M08 Q1034 NOSIG =
METAR LKKU 201600Z 24001KT 4500 HZ FEW046 M05/M10 Q1035=
METAR LKKV 202000Z 11003KT CAVOK M06/M12 Q1031 R29/////// RMK REG QNH 1028=
SPECI LKLN 202001Z AUTO 00000KT 2900 BR NCD M11/M12 Q1033=
METAR LKMT 202000Z 23009KT 8000 BKN018 OVC024 M03/M07 Q1034 R04/850195 NOSIG RMK REG QNH 1028=
METAR LKNA 202000Z VRB01KT CAVOK M06/M12 Q1033 NOSIG=
METAR LKPD 202000Z VRB02KT 4000 BR NSC M10/M12 Q1034 NOSIG =
METAR LKPR 202000Z VRB01KT 3000 BR NSC M09/M10 Q1033 NOSIG RMK REG QNH 1028=
METAR LKTB 202000Z 31001KT 6000 NSC M08/M10 Q1035 R27/31//95 NOSIG RMK REG QNH 1028=
METAR LKVO NIL
METAR LOWI 201950Z VRB02KT CAVOK M08/M09 Q1030 NOSIG=
METAR LOWL 201950Z AUTO 06005KT 5000 FZBR NCD M07/M09 Q1032 BECMG 4000=
METAR LOWS 201950Z VRB01KT 3500 FZBR SKC M11/M13 Q1030 TEMPO 2000=
METAR LOWW 201950Z VRB02KT 5000 FZBR FEW180 M08/M10 Q1035 R88/19//95 TEMPO 4500=
METAR LZIB 202000Z 36003KT 5000 BR FEW007 M09/M11 Q1036 R13/9/2095=
METAR LZKZ 202000Z 36002KT 9999 SCT048 M08/M10 Q1035=
METAR LZPP 202000Z 36002KT 3300 BR NSC M12/M13 Q1036=
METAR LZSL 202000Z 00000KT 3500 BR NSC M15/M17 Q1035=
METAR LZTT 202000Z 28006KT 9999 FEW033 BKN050 M05/M12 Q1031=
METAR LZZI 202000Z VRB01KT 6000 SCT034 M08/M11 Q1035=